sensor_id;sensor_type;location;lat;lon;timestamp;temperature;humidity
52509;DHT22;38420;53.150;6.370;2023-02-23T00:01:22;6.80;99.90
52509;DHT22;38420;53.150;6.370;2023-02-23T00:03:48;7.60;99.90
52509;DHT22;38420;53.150;6.370;2023-02-23T00:06:16;6.80;99.90
52509;DHT22;38420;53.150;6.370;2023-02-23T00:08:42;7.10;99.90
52509;DHT22;38420;53.150;6.370;2023-02-23T00:11:10;6.70;99.90
52509;DHT22;38420;53.150;6.370;2023-02-23T00:13:39;7.50;99.90
52509;DHT22;38420;53.150;6.370;2023-02-23T00:16:11;7.10;99.90
52509;DHT22;38420;53.150;6.370;2023-02-23T00:18:51;7.70;99.90
52509;DHT22;38420;53.150;6.370;2023-02-23T00:21:23;7.80;99.90
52509;DHT22;38420;53.150;6.370;2023-02-23T00:23:52;7.00;99.90
52509;DHT22;38420;53.150;6.370;2023-02-23T00:26:22;6.80;99.90
52509;DHT22;38420;53.150;6.370;2023-02-23T00:28:49;7.30;99.90
52509;DHT22;38420;53.150;6.370;2023-02-23T00:31:16;7.60;99.90
52509;DHT22;38420;53.150;6.370;2023-02-23T00:33:42;6.60;99.90
52509;DHT22;38420;53.150;6.370;2023-02-23T00:36:13;6.60;99.90
52509;DHT22;38420;53.150;6.370;2023-02-23T00:38:40;6.60;99.90
52509;DHT22;38420;53.150;6.370;2023-02-23T00:41:11;6.60;99.90
52509;DHT22;38420;53.150;6.370;2023-02-23T00:43:39;6.60;99.90
52509;DHT22;38420;53.150;6.370;2023-02-23T00:46:25;6.60;99.90
52509;DHT22;38420;53.150;6.370;2023-02-23T00:48:52;7.00;99.90
52509;DHT22;38420;53.150;6.370;2023-02-23T00:51:20;6.70;99.90
52509;DHT22;38420;53.150;6.370;2023-02-23T00:53:46;8.00;99.90
52509;DHT22;38420;53.150;6.370;2023-02-23T00:56:13;6.70;99.90
52509;DHT22;38420;53.150;6.370;2023-02-23T00:58:39;7.40;99.90
52509;DHT22;38420;53.150;6.370;2023-02-23T01:01:10;7.90;99.90
52509;DHT22;38420;53.150;6.370;2023-02-23T01:03:38;7.90;99.90
52509;DHT22;38420;53.150;6.370;2023-02-23T01:06:07;6.80;99.90
52509;DHT22;38420;53.150;6.370;2023-02-23T01:08:35;7.00;99.90
52509;DHT22;38420;53.150;6.370;2023-02-23T01:11:06;7.60;99.90
52509;DHT22;38420;53.150;6.370;2023-02-23T01:13:34;7.10;99.90
52509;DHT22;38420;53.150;6.370;2023-02-23T01:16:06;7.30;99.90
52509;DHT22;38420;53.150;6.370;2023-02-23T01:18:33;7.70;99.90
52509;DHT22;38420;53.150;6.370;2023-02-23T01:21:00;6.90;99.90
52509;DHT22;38420;53.150;6.370;2023-02-23T01:23:25;6.90;99.90
52509;DHT22;38420;53.150;6.370;2023-02-23T01:25:51;7.40;99.90
52509;DHT22;38420;53.150;6.370;2023-02-23T01:28:17;6.90;99.90
52509;DHT22;38420;53.150;6.370;2023-02-23T01:30:42;7.40;99.90
52509;DHT22;38420;53.150;6.370;2023-02-23T01:33:09;6.60;99.90
52509;DHT22;38420;53.150;6.370;2023-02-23T01:35:37;7.90;99.90
52509;DHT22;38420;53.150;6.370;2023-02-23T01:38:03;7.80;99.90
52509;DHT22;38420;53.150;6.370;2023-02-23T01:40:29;7.20;99.90
52509;DHT22;38420;53.150;6.370;2023-02-23T01:45:35;6.70;99.90
52509;DHT22;38420;53.150;6.370;2023-02-23T01:48:10;7.20;99.90
52509;DHT22;38420;53.150;6.370;2023-02-23T01:53:19;7.20;99.90
52509;DHT22;38420;53.150;6.370;2023-02-23T01:55:52;6.80;99.90
52509;DHT22;38420;53.150;6.370;2023-02-23T01:58:21;7.90;99.90
52509;DHT22;38420;53.150;6.370;2023-02-23T02:00:58;7.70;99.90
52509;DHT22;38420;53.150;6.370;2023-02-23T02:03:35;7.50;99.90
52509;DHT22;38420;53.150;6.370;2023-02-23T02:06:03;7.30;99.90
52509;DHT22;38420;53.150;6.370;2023-02-23T02:08:33;6.70;99.90
52509;DHT22;38420;53.150;6.370;2023-02-23T02:10:59;7.80;99.90
52509;DHT22;38420;53.150;6.370;2023-02-23T02:13:32;6.70;99.90
52509;DHT22;38420;53.150;6.370;2023-02-23T02:16:13;6.90;99.90
52509;DHT22;38420;53.150;6.370;2023-02-23T02:18:55;7.80;99.90
52509;DHT22;38420;53.150;6.370;2023-02-23T02:21:49;7.40;99.90
52509;DHT22;38420;53.150;6.370;2023-02-23T02:39:38;6.60;99.90
52509;DHT22;38420;53.150;6.370;2023-02-23T02:48:35;7.50;99.90
52509;DHT22;38420;53.150;6.370;2023-02-23T02:56:16;6.50;99.90
52509;DHT22;38420;53.150;6.370;2023-02-23T02:58:45;7.20;99.90
52509;DHT22;38420;53.150;6.370;2023-02-23T03:01:15;6.60;99.90
52509;DHT22;38420;53.150;6.370;2023-02-23T03:04:03;7.60;99.90
52509;DHT22;38420;53.150;6.370;2023-02-23T03:06:58;7.10;99.90
52509;DHT22;38420;53.150;6.370;2023-02-23T03:09:53;7.10;99.90
52509;DHT22;38420;53.150;6.370;2023-02-23T03:13:05;6.90;99.90
52509;DHT22;38420;53.150;6.370;2023-02-23T03:16:19;7.80;99.90
52509;DHT22;38420;53.150;6.370;2023-02-23T03:24:51;6.60;99.90
52509;DHT22;38420;53.150;6.370;2023-02-23T03:27:57;7.00;99.90
52509;DHT22;38420;53.150;6.370;2023-02-23T03:30:51;6.60;99.90
52509;DHT22;38420;53.150;6.370;2023-02-23T03:33:46;7.50;99.90
52509;DHT22;38420;53.150;6.370;2023-02-23T03:36:35;7.30;99.90
52509;DHT22;38420;53.150;6.370;2023-02-23T03:42:22;6.50;99.90
52509;DHT22;38420;53.150;6.370;2023-02-23T03:45:11;7.10;99.90
52509;DHT22;38420;53.150;6.370;2023-02-23T03:47:58;6.80;99.90
52509;DHT22;38420;53.150;6.370;2023-02-23T03:50:49;7.10;99.90
52509;DHT22;38420;53.150;6.370;2023-02-23T03:53:50;7.80;99.90
52509;DHT22;38420;53.150;6.370;2023-02-23T03:56:39;6.40;99.90
52509;DHT22;38420;53.150;6.370;2023-02-23T03:59:27;6.50;99.90
52509;DHT22;38420;53.150;6.370;2023-02-23T04:02:14;6.40;99.90
52509;DHT22;38420;53.150;6.370;2023-02-23T04:05:01;7.80;99.90
52509;DHT22;38420;53.150;6.370;2023-02-23T04:07:50;7.50;99.90
52509;DHT22;38420;53.150;6.370;2023-02-23T04:10:37;7.60;99.90
52509;DHT22;38420;53.150;6.370;2023-02-23T04:13:25;6.30;99.90
52509;DHT22;38420;53.150;6.370;2023-02-23T04:16:04;7.90;99.90
52509;DHT22;38420;53.150;6.370;2023-02-23T04:18:35;6.30;99.90
52509;DHT22;38420;53.150;6.370;2023-02-23T04:21:02;7.30;99.90
52509;DHT22;38420;53.150;6.370;2023-02-23T04:23:28;7.80;99.90
52509;DHT22;38420;53.150;6.370;2023-02-23T04:25:54;7.20;99.90
52509;DHT22;38420;53.150;6.370;2023-02-23T04:28:21;7.10;99.90
52509;DHT22;38420;53.150;6.370;2023-02-23T04:30:48;7.70;99.90
52509;DHT22;38420;53.150;6.370;2023-02-23T04:33:14;7.80;99.90
52509;DHT22;38420;53.150;6.370;2023-02-23T04:35:40;7.20;99.90
52509;DHT22;38420;53.150;6.370;2023-02-23T04:38:05;6.40;99.90
52509;DHT22;38420;53.150;6.370;2023-02-23T04:40:31;6.40;99.90
52509;DHT22;38420;53.150;6.370;2023-02-23T04:42:57;7.90;99.90
52509;DHT22;38420;53.150;6.370;2023-02-23T04:45:23;7.80;99.90
52509;DHT22;38420;53.150;6.370;2023-02-23T04:47:49;6.30;99.90
52509;DHT22;38420;53.150;6.370;2023-02-23T04:50:15;7.20;99.90
52509;DHT22;38420;53.150;6.370;2023-02-23T04:52:41;7.70;99.90
52509;DHT22;38420;53.150;6.370;2023-02-23T04:55:08;6.50;99.90
52509;DHT22;38420;53.150;6.370;2023-02-23T04:57:39;7.80;99.90
52509;DHT22;38420;53.150;6.370;2023-02-23T05:00:05;7.40;99.90
52509;DHT22;38420;53.150;6.370;2023-02-23T05:02:31;7.80;99.90
52509;DHT22;38420;53.150;6.370;2023-02-23T05:04:57;6.50;99.90
52509;DHT22;38420;53.150;6.370;2023-02-23T05:07:22;6.80;99.90
52509;DHT22;38420;53.150;6.370;2023-02-23T05:09:48;6.70;99.90
52509;DHT22;38420;53.150;6.370;2023-02-23T05:12:14;6.90;99.90
52509;DHT22;38420;53.150;6.370;2023-02-23T05:14:39;6.30;99.90
52509;DHT22;38420;53.150;6.370;2023-02-23T05:17:05;7.10;99.90
52509;DHT22;38420;53.150;6.370;2023-02-23T05:19:31;6.30;99.90
52509;DHT22;38420;53.150;6.370;2023-02-23T05:21:57;6.30;99.90
52509;DHT22;38420;53.150;6.370;2023-02-23T05:24:22;6.40;99.90
52509;DHT22;38420;53.150;6.370;2023-02-23T05:26:48;7.80;99.90
52509;DHT22;38420;53.150;6.370;2023-02-23T05:29:14;7.70;99.90
52509;DHT22;38420;53.150;6.370;2023-02-23T05:31:40;7.80;99.90
52509;DHT22;38420;53.150;6.370;2023-02-23T05:34:06;7.50;99.90
52509;DHT22;38420;53.150;6.370;2023-02-23T05:36:32;6.90;99.90
52509;DHT22;38420;53.150;6.370;2023-02-23T05:38:57;7.10;99.90
52509;DHT22;38420;53.150;6.370;2023-02-23T05:41:23;7.70;99.90
52509;DHT22;38420;53.150;6.370;2023-02-23T05:43:49;6.40;99.90
52509;DHT22;38420;53.150;6.370;2023-02-23T05:46:27;6.50;99.90
52509;DHT22;38420;53.150;6.370;2023-02-23T05:48:56;7.60;99.90
52509;DHT22;38420;53.150;6.370;2023-02-23T05:51:23;7.60;99.90
52509;DHT22;38420;53.150;6.370;2023-02-23T05:53:48;7.70;99.90
52509;DHT22;38420;53.150;6.370;2023-02-23T05:56:16;6.90;99.90
52509;DHT22;38420;53.150;6.370;2023-02-23T05:58:49;7.40;99.90
52509;DHT22;38420;53.150;6.370;2023-02-23T06:01:16;7.60;99.90
52509;DHT22;38420;53.150;6.370;2023-02-23T06:03:43;7.60;99.90
52509;DHT22;38420;53.150;6.370;2023-02-23T06:06:09;6.60;99.90
52509;DHT22;38420;53.150;6.370;2023-02-23T06:08:35;6.70;99.90
52509;DHT22;38420;53.150;6.370;2023-02-23T06:11:00;6.40;99.90
52509;DHT22;38420;53.150;6.370;2023-02-23T06:13:26;7.40;99.90
52509;DHT22;38420;53.150;6.370;2023-02-23T06:15:53;7.60;99.90
52509;DHT22;38420;53.150;6.370;2023-02-23T06:18:18;6.60;99.90
52509;DHT22;38420;53.150;6.370;2023-02-23T06:20:46;7.60;99.90
52509;DHT22;38420;53.150;6.370;2023-02-23T06:23:12;7.50;99.90
52509;DHT22;38420;53.150;6.370;2023-02-23T06:25:38;7.70;99.90
52509;DHT22;38420;53.150;6.370;2023-02-23T06:28:04;6.80;99.90
52509;DHT22;38420;53.150;6.370;2023-02-23T06:30:31;7.10;99.90
52509;DHT22;38420;53.150;6.370;2023-02-23T06:32:57;6.50;99.90
52509;DHT22;38420;53.150;6.370;2023-02-23T06:35:23;6.50;99.90
52509;DHT22;38420;53.150;6.370;2023-02-23T06:37:48;6.60;99.90
52509;DHT22;38420;53.150;6.370;2023-02-23T06:40:14;6.90;99.90
52509;DHT22;38420;53.150;6.370;2023-02-23T06:42:39;7.00;99.90
52509;DHT22;38420;53.150;6.370;2023-02-23T06:45:05;6.60;99.90
52509;DHT22;38420;53.150;6.370;2023-02-23T06:47:31;6.70;99.90
52509;DHT22;38420;53.150;6.370;2023-02-23T06:49:57;7.10;99.90
52509;DHT22;38420;53.150;6.370;2023-02-23T06:52:24;6.40;99.90
52509;DHT22;38420;53.150;6.370;2023-02-23T06:54:50;7.40;99.90
52509;DHT22;38420;53.150;6.370;2023-02-23T06:57:16;7.00;99.90
52509;DHT22;38420;53.150;6.370;2023-02-23T06:59:41;7.40;99.90
52509;DHT22;38420;53.150;6.370;2023-02-23T07:02:10;7.00;99.90
52509;DHT22;38420;53.150;6.370;2023-02-23T07:04:36;6.50;99.90
52509;DHT22;38420;53.150;6.370;2023-02-23T07:07:02;7.00;99.90
52509;DHT22;38420;53.150;6.370;2023-02-23T07:09:28;7.50;99.90
52509;DHT22;38420;53.150;6.370;2023-02-23T07:11:53;7.30;99.90
52509;DHT22;38420;53.150;6.370;2023-02-23T07:14:19;6.70;99.90
52509;DHT22;38420;53.150;6.370;2023-02-23T07:16:44;7.40;99.90
52509;DHT22;38420;53.150;6.370;2023-02-23T07:19:10;6.70;99.90
52509;DHT22;38420;53.150;6.370;2023-02-23T07:21:36;6.50;99.90
52509;DHT22;38420;53.150;6.370;2023-02-23T07:24:01;6.70;99.90
52509;DHT22;38420;53.150;6.370;2023-02-23T07:26:31;7.10;99.90
52509;DHT22;38420;53.150;6.370;2023-02-23T07:28:58;7.40;99.90
52509;DHT22;38420;53.150;6.370;2023-02-23T07:31:24;6.80;99.90
52509;DHT22;38420;53.150;6.370;2023-02-23T07:33:51;6.70;99.90
52509;DHT22;38420;53.150;6.370;2023-02-23T07:36:22;6.50;99.90
52509;DHT22;38420;53.150;6.370;2023-02-23T07:38:48;6.50;99.90
52509;DHT22;38420;53.150;6.370;2023-02-23T07:41:14;6.50;99.90
52509;DHT22;38420;53.150;6.370;2023-02-23T07:43:39;6.40;99.90
52509;DHT22;38420;53.150;6.370;2023-02-23T07:46:05;6.50;99.90
52509;DHT22;38420;53.150;6.370;2023-02-23T07:48:31;7.40;99.90
52509;DHT22;38420;53.150;6.370;2023-02-23T07:50:57;6.60;99.90
52509;DHT22;38420;53.150;6.370;2023-02-23T07:53:23;7.20;99.90
52509;DHT22;38420;53.150;6.370;2023-02-23T07:55:58;7.00;99.90
52509;DHT22;38420;53.150;6.370;2023-02-23T07:58:26;6.60;99.90
52509;DHT22;38420;53.150;6.370;2023-02-23T08:00:52;7.10;99.90
52509;DHT22;38420;53.150;6.370;2023-02-23T08:03:18;6.60;99.90
52509;DHT22;38420;53.150;6.370;2023-02-23T08:05:44;6.80;99.90
52509;DHT22;38420;53.150;6.370;2023-02-23T08:08:10;6.70;99.90
52509;DHT22;38420;53.150;6.370;2023-02-23T08:10:36;7.40;99.90
52509;DHT22;38420;53.150;6.370;2023-02-23T08:13:03;6.60;99.90
52509;DHT22;38420;53.150;6.370;2023-02-23T08:15:29;7.40;99.90
52509;DHT22;38420;53.150;6.370;2023-02-23T08:17:56;7.40;99.90
52509;DHT22;38420;53.150;6.370;2023-02-23T08:20:22;7.50;99.90
52509;DHT22;38420;53.150;6.370;2023-02-23T08:22:53;6.60;99.90
52509;DHT22;38420;53.150;6.370;2023-02-23T08:25:18;7.20;99.90
52509;DHT22;38420;53.150;6.370;2023-02-23T08:27:44;6.50;99.90
52509;DHT22;38420;53.150;6.370;2023-02-23T08:30:11;6.90;99.90
52509;DHT22;38420;53.150;6.370;2023-02-23T08:32:38;6.70;99.90
52509;DHT22;38420;53.150;6.370;2023-02-23T08:35:04;7.00;99.90
52509;DHT22;38420;53.150;6.370;2023-02-23T08:37:32;6.60;99.90
52509;DHT22;38420;53.150;6.370;2023-02-23T08:39:58;6.80;99.90
52509;DHT22;38420;53.150;6.370;2023-02-23T08:42:26;7.50;99.90
52509;DHT22;38420;53.150;6.370;2023-02-23T08:44:51;7.40;99.90
52509;DHT22;38420;53.150;6.370;2023-02-23T08:47:17;7.00;99.90
52509;DHT22;38420;53.150;6.370;2023-02-23T08:49:48;7.10;99.90
52509;DHT22;38420;53.150;6.370;2023-02-23T08:52:14;7.40;99.90
52509;DHT22;38420;53.150;6.370;2023-02-23T08:54:40;7.50;99.90
52509;DHT22;38420;53.150;6.370;2023-02-23T08:57:05;6.80;99.90
52509;DHT22;38420;53.150;6.370;2023-02-23T08:59:31;6.60;99.90
52509;DHT22;38420;53.150;6.370;2023-02-23T09:01:57;6.90;99.90
52509;DHT22;38420;53.150;6.370;2023-02-23T09:04:22;6.70;99.90
52509;DHT22;38420;53.150;6.370;2023-02-23T09:06:48;7.40;99.90
52509;DHT22;38420;53.150;6.370;2023-02-23T09:09:15;7.20;99.90
52509;DHT22;38420;53.150;6.370;2023-02-23T09:11:41;6.60;99.90
52509;DHT22;38420;53.150;6.370;2023-02-23T09:14:07;7.20;99.90
52509;DHT22;38420;53.150;6.370;2023-02-23T09:16:33;7.30;99.90
52509;DHT22;38420;53.150;6.370;2023-02-23T09:19:00;7.70;99.90
52509;DHT22;38420;53.150;6.370;2023-02-23T09:21:26;7.30;99.90
52509;DHT22;38420;53.150;6.370;2023-02-23T09:23:54;7.00;99.90
52509;DHT22;38420;53.150;6.370;2023-02-23T09:26:22;7.30;99.90
52509;DHT22;38420;53.150;6.370;2023-02-23T09:28:48;7.20;99.90
52509;DHT22;38420;53.150;6.370;2023-02-23T09:31:17;7.60;99.90
52509;DHT22;38420;53.150;6.370;2023-02-23T09:33:43;6.90;99.90
52509;DHT22;38420;53.150;6.370;2023-02-23T09:36:11;7.00;99.90
52509;DHT22;38420;53.150;6.370;2023-02-23T09:38:39;7.50;99.90
52509;DHT22;38420;53.150;6.370;2023-02-23T09:44:10;7.10;99.90
52509;DHT22;38420;53.150;6.370;2023-02-23T09:49:20;7.50;99.90
52509;DHT22;38420;53.150;6.370;2023-02-23T09:51:51;7.20;99.90
52509;DHT22;38420;53.150;6.370;2023-02-23T09:54:22;7.30;99.90
52509;DHT22;38420;53.150;6.370;2023-02-23T09:56:49;7.50;99.90
52509;DHT22;38420;53.150;6.370;2023-02-23T09:59:19;7.90;99.90
52509;DHT22;38420;53.150;6.370;2023-02-23T10:02:07;7.90;99.90
52509;DHT22;38420;53.150;6.370;2023-02-23T10:04:46;8.00;99.90
52509;DHT22;38420;53.150;6.370;2023-02-23T10:15:33;7.50;99.90
52509;DHT22;38420;53.150;6.370;2023-02-23T10:26:17;8.10;99.90
52509;DHT22;38420;53.150;6.370;2023-02-23T10:28:44;8.30;99.90
52509;DHT22;38420;53.150;6.370;2023-02-23T10:31:27;7.90;99.90
52509;DHT22;38420;53.150;6.370;2023-02-23T10:33:55;7.70;99.90
52509;DHT22;38420;53.150;6.370;2023-02-23T10:38:59;7.70;99.90
52509;DHT22;38420;53.150;6.370;2023-02-23T10:41:25;8.00;99.90
52509;DHT22;38420;53.150;6.370;2023-02-23T10:43:50;8.10;99.90
52509;DHT22;38420;53.150;6.370;2023-02-23T10:46:20;7.80;99.90
52509;DHT22;38420;53.150;6.370;2023-02-23T10:48:46;8.30;99.90
52509;DHT22;38420;53.150;6.370;2023-02-23T10:51:18;8.10;99.90
52509;DHT22;38420;53.150;6.370;2023-02-23T10:53:46;8.00;99.90
52509;DHT22;38420;53.150;6.370;2023-02-23T10:56:17;7.70;99.90
52509;DHT22;38420;53.150;6.370;2023-02-23T10:58:43;8.30;99.90
52509;DHT22;38420;53.150;6.370;2023-02-23T11:01:12;8.40;99.90
52509;DHT22;38420;53.150;6.370;2023-02-23T11:03:44;8.40;99.90
52509;DHT22;38420;53.150;6.370;2023-02-23T11:06:33;8.10;99.90
52509;DHT22;38420;53.150;6.370;2023-02-23T11:11:40;8.10;99.90
52509;DHT22;38420;53.150;6.370;2023-02-23T11:14:24;7.90;99.90
52509;DHT22;38420;53.150;6.370;2023-02-23T11:16:52;8.10;99.90
52509;DHT22;38420;53.150;6.370;2023-02-23T11:19:31;8.10;99.90
52509;DHT22;38420;53.150;6.370;2023-02-23T11:21:58;8.10;99.90
52509;DHT22;38420;53.150;6.370;2023-02-23T11:24:25;8.20;99.90
52509;DHT22;38420;53.150;6.370;2023-02-23T11:26:53;8.40;99.90
52509;DHT22;38420;53.150;6.370;2023-02-23T11:29:42;8.30;99.90
52509;DHT22;38420;53.150;6.370;2023-02-23T11:34:38;8.20;99.90
52509;DHT22;38420;53.150;6.370;2023-02-23T11:37:17;8.40;99.90
52509;DHT22;38420;53.150;6.370;2023-02-23T11:42:19;8.40;99.90
52509;DHT22;38420;53.150;6.370;2023-02-23T11:45:05;8.30;99.90
52509;DHT22;38420;53.150;6.370;2023-02-23T11:47:32;8.40;99.90
52509;DHT22;38420;53.150;6.370;2023-02-23T11:50:00;8.40;99.90
52509;DHT22;38420;53.150;6.370;2023-02-23T11:52:28;8.40;99.90
52509;DHT22;38420;53.150;6.370;2023-02-23T11:54:59;8.60;99.90
52509;DHT22;38420;53.150;6.370;2023-02-23T11:57:29;8.60;99.90
52509;DHT22;38420;53.150;6.370;2023-02-23T11:59:58;8.40;99.90
52509;DHT22;38420;53.150;6.370;2023-02-23T12:02:29;8.30;99.90
52509;DHT22;38420;53.150;6.370;2023-02-23T12:07:39;8.60;99.90
52509;DHT22;38420;53.150;6.370;2023-02-23T12:13:01;8.30;99.90
52509;DHT22;38420;53.150;6.370;2023-02-23T12:15:46;8.50;99.90
52509;DHT22;38420;53.150;6.370;2023-02-23T12:21:14;8.50;99.90
52509;DHT22;38420;53.150;6.370;2023-02-23T12:23:44;8.10;99.90
52509;DHT22;38420;53.150;6.370;2023-02-23T12:26:16;8.10;99.90
52509;DHT22;38420;53.150;6.370;2023-02-23T12:28:53;8.40;99.90
52509;DHT22;38420;53.150;6.370;2023-02-23T12:31:48;8.50;99.90
52509;DHT22;38420;53.150;6.370;2023-02-23T12:34:49;8.10;99.90
52509;DHT22;38420;53.150;6.370;2023-02-23T12:39:44;8.40;99.90
52509;DHT22;38420;53.150;6.370;2023-02-23T12:47:33;7.90;99.90
52509;DHT22;38420;53.150;6.370;2023-02-23T12:50:21;8.50;99.90
52509;DHT22;38420;53.150;6.370;2023-02-23T12:52:56;8.60;99.90
52509;DHT22;38420;53.150;6.370;2023-02-23T12:58:34;7.80;99.90
52509;DHT22;38420;53.150;6.370;2023-02-23T13:06:21;7.90;99.90
52509;DHT22;38420;53.150;6.370;2023-02-23T13:08:59;8.20;99.90
52509;DHT22;38420;53.150;6.370;2023-02-23T13:17:22;7.20;99.90
52509;DHT22;38420;53.150;6.370;2023-02-23T13:20:00;8.10;99.90
52509;DHT22;38420;53.150;6.370;2023-02-23T13:22:43;6.90;99.90
52509;DHT22;38420;53.150;6.370;2023-02-23T13:28:03;7.10;99.90
52509;DHT22;38420;53.150;6.370;2023-02-23T13:30:30;7.70;99.90
52509;DHT22;38420;53.150;6.370;2023-02-23T13:32:58;6.70;99.90
52509;DHT22;38420;53.150;6.370;2023-02-23T13:35:28;7.30;99.90
52509;DHT22;38420;53.150;6.370;2023-02-23T13:38:08;6.70;99.90
52509;DHT22;38420;53.150;6.370;2023-02-23T13:40:58;7.50;99.90
52509;DHT22;38420;53.150;6.370;2023-02-23T13:43:38;6.50;99.90
52509;DHT22;38420;53.150;6.370;2023-02-23T13:49:21;6.60;99.90
52509;DHT22;38420;53.150;6.370;2023-02-23T13:51:58;7.20;99.90
52509;DHT22;38420;53.150;6.370;2023-02-23T13:54:31;6.30;99.90
52509;DHT22;38420;53.150;6.370;2023-02-23T13:57:09;7.00;99.90
52509;DHT22;38420;53.150;6.370;2023-02-23T13:59:40;6.50;99.90
52509;DHT22;38420;53.150;6.370;2023-02-23T14:02:42;7.10;99.90
52509;DHT22;38420;53.150;6.370;2023-02-23T14:05:22;7.20;99.90
52509;DHT22;38420;53.150;6.370;2023-02-23T14:07:58;6.60;99.90
52509;DHT22;38420;53.150;6.370;2023-02-23T14:10:38;6.50;99.90
52509;DHT22;38420;53.150;6.370;2023-02-23T14:15:47;6.80;99.90
52509;DHT22;38420;53.150;6.370;2023-02-23T14:20:54;6.70;99.90
52509;DHT22;38420;53.150;6.370;2023-02-23T14:26:12;6.50;99.90
52509;DHT22;38420;53.150;6.370;2023-02-23T14:28:38;6.10;99.90
52509;DHT22;38420;53.150;6.370;2023-02-23T14:43:58;6.20;99.90
52509;DHT22;38420;53.150;6.370;2023-02-23T14:46:25;5.90;99.90
52509;DHT22;38420;53.150;6.370;2023-02-23T14:49:04;5.90;99.90
52509;DHT22;38420;53.150;6.370;2023-02-23T14:51:45;6.70;99.90
52509;DHT22;38420;53.150;6.370;2023-02-23T14:56:53;5.80;99.90
52509;DHT22;38420;53.150;6.370;2023-02-23T14:59:22;6.30;99.90
52509;DHT22;38420;53.150;6.370;2023-02-23T15:01:50;6.60;99.90
52509;DHT22;38420;53.150;6.370;2023-02-23T15:04:26;5.80;99.90
52509;DHT22;38420;53.150;6.370;2023-02-23T15:06:57;5.80;99.90
52509;DHT22;38420;53.150;6.370;2023-02-23T15:09:32;6.00;99.90
52509;DHT22;38420;53.150;6.370;2023-02-23T15:12:01;6.50;99.90
52509;DHT22;38420;53.150;6.370;2023-02-23T15:14:36;6.50;99.90
52509;DHT22;38420;53.150;6.370;2023-02-23T15:17:02;6.10;99.90
52509;DHT22;38420;53.150;6.370;2023-02-23T15:19:31;6.30;99.90
52509;DHT22;38420;53.150;6.370;2023-02-23T15:21:59;6.20;99.90
52509;DHT22;38420;53.150;6.370;2023-02-23T15:24:43;5.90;99.90
52509;DHT22;38420;53.150;6.370;2023-02-23T15:27:17;6.40;99.90
52509;DHT22;38420;53.150;6.370;2023-02-23T15:29:43;6.00;99.90
52509;DHT22;38420;53.150;6.370;2023-02-23T15:32:12;6.00;99.90
52509;DHT22;38420;53.150;6.370;2023-02-23T15:34:41;6.00;99.90
52509;DHT22;38420;53.150;6.370;2023-02-23T15:39:55;6.30;99.90
52509;DHT22;38420;53.150;6.370;2023-02-23T15:42:30;6.40;99.90
52509;DHT22;38420;53.150;6.370;2023-02-23T15:44:59;6.10;99.90
52509;DHT22;38420;53.150;6.370;2023-02-23T15:47:31;6.10;99.90
52509;DHT22;38420;53.150;6.370;2023-02-23T15:50:26;6.20;99.90
52509;DHT22;38420;53.150;6.370;2023-02-23T15:52:59;6.20;99.90
52509;DHT22;38420;53.150;6.370;2023-02-23T15:55:31;6.30;99.90
52509;DHT22;38420;53.150;6.370;2023-02-23T15:58:08;6.40;99.90
52509;DHT22;38420;53.150;6.370;2023-02-23T16:00:39;6.20;99.90
52509;DHT22;38420;53.150;6.370;2023-02-23T16:03:06;6.20;99.90
52509;DHT22;38420;53.150;6.370;2023-02-23T16:05:54;6.20;99.90
52509;DHT22;38420;53.150;6.370;2023-02-23T16:08:24;6.40;99.90
52509;DHT22;38420;53.150;6.370;2023-02-23T16:10:54;6.20;99.90
52509;DHT22;38420;53.150;6.370;2023-02-23T16:13:24;6.10;99.90
52509;DHT22;38420;53.150;6.370;2023-02-23T16:15:53;6.20;99.90
52509;DHT22;38420;53.150;6.370;2023-02-23T16:18:24;6.10;99.90
52509;DHT22;38420;53.150;6.370;2023-02-23T16:20:52;6.30;99.90
52509;DHT22;38420;53.150;6.370;2023-02-23T16:23:39;6.20;99.90
52509;DHT22;38420;53.150;6.370;2023-02-23T16:26:08;6.20;99.90
52509;DHT22;38420;53.150;6.370;2023-02-23T16:28:35;6.20;99.90
52509;DHT22;38420;53.150;6.370;2023-02-23T16:31:07;6.10;99.90
52509;DHT22;38420;53.150;6.370;2023-02-23T16:33:51;6.20;99.90
52509;DHT22;38420;53.150;6.370;2023-02-23T16:36:23;6.20;99.90
52509;DHT22;38420;53.150;6.370;2023-02-23T16:41:25;6.00;99.90
52509;DHT22;38420;53.150;6.370;2023-02-23T16:43:53;6.00;99.90
52509;DHT22;38420;53.150;6.370;2023-02-23T16:46:22;6.00;99.90
52509;DHT22;38420;53.150;6.370;2023-02-23T16:48:48;6.00;99.90
52509;DHT22;38420;53.150;6.370;2023-02-23T16:51:17;6.00;99.90
52509;DHT22;38420;53.150;6.370;2023-02-23T16:53:43;6.00;99.90
52509;DHT22;38420;53.150;6.370;2023-02-23T16:56:11;5.90;99.90
52509;DHT22;38420;53.150;6.370;2023-02-23T16:58:42;6.00;99.90
52509;DHT22;38420;53.150;6.370;2023-02-23T17:01:12;6.00;99.90
52509;DHT22;38420;53.150;6.370;2023-02-23T17:03:39;5.90;99.90
52509;DHT22;38420;53.150;6.370;2023-02-23T17:06:05;5.90;99.90
52509;DHT22;38420;53.150;6.370;2023-02-23T17:08:31;5.90;99.90
52509;DHT22;38420;53.150;6.370;2023-02-23T17:11:00;5.80;99.90
52509;DHT22;38420;53.150;6.370;2023-02-23T17:13:27;6.30;99.90
52509;DHT22;38420;53.150;6.370;2023-02-23T17:15:54;5.80;99.90
52509;DHT22;38420;53.150;6.370;2023-02-23T17:18:29;5.80;99.90
52509;DHT22;38420;53.150;6.370;2023-02-23T17:20:56;5.70;99.90
52509;DHT22;38420;53.150;6.370;2023-02-23T17:23:24;5.80;99.90
52509;DHT22;38420;53.150;6.370;2023-02-23T17:25:52;5.70;99.90
52509;DHT22;38420;53.150;6.370;2023-02-23T17:28:18;5.60;99.90
52509;DHT22;38420;53.150;6.370;2023-02-23T17:30:46;5.60;99.90
52509;DHT22;38420;53.150;6.370;2023-02-23T17:33:12;5.50;99.90
52509;DHT22;38420;53.150;6.370;2023-02-23T17:35:38;5.50;99.90
52509;DHT22;38420;53.150;6.370;2023-02-23T17:38:05;5.50;99.90
52509;DHT22;38420;53.150;6.370;2023-02-23T17:40:31;5.40;99.90
52509;DHT22;38420;53.150;6.370;2023-02-23T17:43:03;5.30;99.90
52509;DHT22;38420;53.150;6.370;2023-02-23T17:45:30;5.30;99.90
52509;DHT22;38420;53.150;6.370;2023-02-23T17:47:57;5.30;99.90
52509;DHT22;38420;53.150;6.370;2023-02-23T17:50:23;5.20;99.90
52509;DHT22;38420;53.150;6.370;2023-02-23T17:52:51;5.10;99.90
52509;DHT22;38420;53.150;6.370;2023-02-23T17:55:18;5.10;99.90
52509;DHT22;38420;53.150;6.370;2023-02-23T17:57:45;5.00;99.90
52509;DHT22;38420;53.150;6.370;2023-02-23T18:00:12;5.10;99.90
52509;DHT22;38420;53.150;6.370;2023-02-23T18:02:39;5.00;99.90
52509;DHT22;38420;53.150;6.370;2023-02-23T18:05:05;5.80;99.90
52509;DHT22;38420;53.150;6.370;2023-02-23T18:07:31;5.00;99.90
52509;DHT22;38420;53.150;6.370;2023-02-23T18:09:56;4.90;99.90
52509;DHT22;38420;53.150;6.370;2023-02-23T18:12:22;4.80;99.90
52509;DHT22;38420;53.150;6.370;2023-02-23T18:14:48;4.80;99.90
52509;DHT22;38420;53.150;6.370;2023-02-23T18:17:14;4.70;99.90
52509;DHT22;38420;53.150;6.370;2023-02-23T18:19:41;4.70;99.90
52509;DHT22;38420;53.150;6.370;2023-02-23T18:22:06;4.70;99.90
52509;DHT22;38420;53.150;6.370;2023-02-23T18:24:32;4.60;99.90
52509;DHT22;38420;53.150;6.370;2023-02-23T18:26:58;4.60;99.90